createdAt,value
2018-03-19T00:01:22.406Z,40.55
2018-03-19T00:03:50.680Z,40.47
2018-03-19T00:06:18.959Z,39.28
2018-03-19T00:08:47.190Z,39.78
2018-03-19T00:11:15.337Z,35.10
2018-03-19T00:13:42.815Z,35.97
2018-03-19T00:16:10.314Z,33.00
2018-03-19T00:18:38.574Z,32.67
2018-03-19T00:21:06.121Z,31.80
2018-03-19T00:23:33.593Z,31.52
2018-03-19T00:26:01.086Z,34.38
2018-03-19T00:28:29.331Z,31.35
2018-03-19T00:30:56.830Z,26.33
2018-03-19T00:33:24.297Z,25.77
2018-03-19T00:35:51.830Z,40.35
2018-03-19T00:38:20.059Z,29.58
2018-03-19T00:40:47.571Z,35.40
2018-03-19T00:43:15.927Z,31.62
2018-03-19T00:45:43.442Z,29.12
2018-03-19T00:48:10.922Z,37.53
2018-03-19T00:50:38.462Z,31.52
2018-03-19T00:53:05.945Z,33.35
2018-03-19T00:55:33.418Z,31.08
2018-03-19T00:58:00.913Z,38.83
2018-03-19T01:00:28.412Z,26.87
2018-03-19T01:02:55.912Z,33.20
2018-03-19T01:05:24.182Z,41.28
2018-03-19T01:07:51.660Z,34.78
2018-03-19T01:10:19.927Z,33.83
2018-03-19T01:12:47.395Z,32.35
2018-03-19T01:15:15.634Z,30.15
2018-03-19T01:17:43.142Z,30.00
2018-03-19T01:20:10.632Z,35.53
2018-03-19T01:22:38.142Z,28.80
2018-03-19T01:25:06.384Z,33.20
2018-03-19T01:27:33.878Z,31.75
2018-03-19T01:30:02.150Z,27.42
2018-03-19T01:32:30.412Z,27.73
2018-03-19T01:34:59.421Z,45.15
2018-03-19T01:37:27.648Z,27.75
2018-03-19T01:39:55.142Z,27.62
2018-03-19T01:42:23.398Z,35.33
2018-03-19T01:44:50.903Z,27.42
2018-03-19T01:47:18.380Z,29.55
2018-03-19T01:49:45.891Z,29.70
2018-03-19T01:52:13.389Z,34.15
2018-03-19T01:54:40.886Z,35.28
2018-03-19T01:57:08.359Z,31.90
2018-03-19T01:59:35.884Z,28.15
2018-03-19T02:02:03.382Z,31.23
2018-03-19T02:04:30.900Z,34.05
2018-03-19T02:06:58.514Z,33.17
2018-03-19T02:09:26.758Z,29.05
2018-03-19T02:11:54.250Z,33.42
2018-03-19T02:14:21.740Z,37.42
2018-03-19T02:16:49.246Z,32.72
2018-03-19T02:19:16.742Z,39.10
2018-03-19T02:21:45.018Z,33.55
2018-03-19T02:24:13.310Z,28.12
2018-03-19T02:26:40.772Z,30.92
2018-03-19T02:29:08.265Z,31.60
2018-03-19T02:31:35.770Z,38.20
2018-03-19T02:34:04.032Z,31.17
2018-03-19T02:36:31.534Z,31.20
2018-03-19T02:38:59.034Z,23.98
2018-03-19T02:41:26.523Z,37.08
2018-03-19T02:43:54.785Z,33.95
2018-03-19T02:46:23.038Z,33.30
2018-03-19T02:48:50.585Z,36.70
2018-03-19T02:51:18.078Z,29.55
2018-03-19T02:53:45.569Z,31.98
2018-03-19T02:56:13.042Z,28.15
2018-03-19T02:58:40.568Z,33.22
2018-03-19T03:01:08.804Z,36.03
2018-03-19T03:03:36.320Z,35.95
2018-03-19T03:06:03.790Z,30.95
2018-03-19T03:08:31.295Z,34.08
2018-03-19T03:10:58.777Z,35.95
2018-03-19T03:13:27.061Z,24.85
2018-03-19T03:15:55.293Z,27.50
2018-03-19T03:18:22.822Z,27.35
2018-03-19T03:20:50.329Z,31.52
2018-03-19T03:23:17.793Z,33.17
2018-03-19T03:25:45.318Z,36.47
2018-03-19T03:28:12.778Z,32.63
2018-03-19T03:30:40.330Z,36.00
2018-03-19T03:33:07.818Z,43.92
2018-03-19T03:35:35.290Z,40.67
2018-03-19T03:38:02.815Z,32.83
2018-03-19T03:40:30.310Z,30.10
2018-03-19T03:42:57.830Z,32.03
2018-03-19T03:45:25.310Z,40.90
2018-03-19T03:47:52.778Z,35.33
2018-03-19T03:50:20.283Z,44.25
2018-03-19T03:52:47.750Z,42.97
2018-03-19T03:55:15.267Z,29.73
2018-03-19T03:57:42.760Z,35.25
2018-03-19T04:00:10.228Z,37.65
2018-03-19T04:02:37.727Z,37.95
2018-03-19T04:05:05.189Z,27.52
2018-03-19T04:07:32.713Z,31.75
2018-03-19T04:10:00.211Z,42.70
2018-03-19T04:12:27.732Z,40.60
2018-03-19T04:14:55.194Z,43.22
2018-03-19T04:17:22.674Z,28.67
2018-03-19T04:19:50.187Z,41.05
2018-03-19T04:22:17.667Z,36.88
2018-03-19T04:24:45.139Z,37.63
2018-03-19T04:27:12.650Z,38.50
2018-03-19T04:29:40.122Z,37.60
2018-03-19T04:32:07.614Z,35.55
2018-03-19T04:34:35.322Z,27.58
2018-03-19T04:37:03.595Z,32.03
2018-03-19T04:39:31.829Z,36.00
2018-03-19T04:41:59.329Z,35.70
2018-03-19T04:44:27.558Z,40.05
2018-03-19T04:46:55.067Z,40.70
2018-03-19T04:49:23.310Z,46.28
2018-03-19T04:51:50.830Z,40.05
2018-03-19T04:54:18.310Z,32.55
2018-03-19T04:56:45.820Z,33.88
2018-03-19T04:59:14.078Z,35.70
2018-03-19T05:01:41.577Z,39.03
2018-03-19T05:04:09.079Z,38.83
2018-03-19T05:06:36.553Z,32.90
2018-03-19T05:09:04.160Z,43.60
2018-03-19T05:11:31.631Z,47.75
2018-03-19T05:13:59.138Z,37.33
2018-03-19T05:16:27.369Z,33.97
2018-03-19T05:18:54.885Z,42.30
2018-03-19T05:21:23.135Z,35.95
2018-03-19T05:23:50.638Z,41.58
2018-03-19T05:26:18.139Z,43.38
2018-03-19T05:28:45.611Z,35.78
2018-03-19T05:31:13.149Z,38.35
2018-03-19T05:33:40.626Z,39.20
2018-03-19T05:36:08.146Z,42.10
2018-03-19T05:38:35.622Z,35.10
2018-03-19T05:41:03.122Z,33.63
2018-03-19T05:43:31.400Z,36.13
2018-03-19T05:45:59.627Z,39.38
2018-03-19T05:48:27.139Z,41.63
2018-03-19T05:50:55.367Z,41.10
2018-03-19T05:53:22.859Z,43.67
2018-03-19T05:55:51.130Z,44.97
2018-03-19T05:58:18.624Z,38.08
2018-03-19T06:00:46.116Z,42.53
2018-03-19T06:03:13.628Z,40.50
2018-03-19T06:05:41.874Z,38.10
2018-03-19T06:08:09.438Z,40.75
2018-03-19T06:10:36.914Z,35.53
2018-03-19T06:13:05.155Z,44.45
2018-03-19T06:15:32.659Z,38.58
2018-03-19T06:18:00.896Z,38.28
2018-03-19T06:20:28.399Z,48.33
2018-03-19T06:22:56.702Z,38.85
2018-03-19T06:25:24.198Z,42.03
2018-03-19T06:27:51.665Z,53.30
2018-03-19T06:30:20.669Z,49.95
2018-03-19T06:32:48.128Z,35.03
2018-03-19T06:35:16.386Z,40.85
2018-03-19T06:37:43.884Z,49.85
2018-03-19T06:40:11.481Z,44.88
2018-03-19T06:42:38.976Z,45.00
2018-03-19T06:45:06.705Z,42.13
2018-03-19T06:47:34.239Z,46.72
2018-03-19T06:50:01.732Z,40.97
2018-03-19T06:52:29.286Z,44.38
2018-03-19T06:54:56.783Z,40.00
2018-03-19T06:57:24.280Z,44.65
2018-03-19T06:59:51.769Z,41.60
2018-03-19T07:02:19.287Z,38.17
2018-03-19T07:04:46.812Z,45.58
2018-03-19T07:07:14.310Z,44.70
2018-03-19T07:09:41.786Z,40.33
2018-03-19T07:12:09.278Z,38.60
2018-03-19T07:14:36.786Z,41.70
2018-03-19T07:17:04.287Z,39.13
2018-03-19T07:19:31.830Z,44.10
2018-03-19T07:21:59.325Z,42.13
2018-03-19T07:24:26.830Z,38.53
2018-03-19T07:26:54.330Z,38.80
2018-03-19T07:29:21.831Z,35.35
2018-03-19T07:31:49.346Z,36.55
2018-03-19T07:34:16.859Z,44.22
2018-03-19T07:36:44.367Z,35.55
2018-03-19T07:39:11.876Z,39.63
2018-03-19T07:41:39.375Z,37.13
2018-03-19T07:44:06.882Z,36.17
2018-03-19T07:46:35.135Z,43.25
2018-03-19T07:49:02.624Z,31.00
2018-03-19T07:51:30.144Z,32.42
2018-03-19T07:53:57.662Z,41.95
2018-03-19T07:56:25.147Z,36.63
2018-03-19T07:58:52.638Z,44.95
2018-03-19T08:01:20.924Z,35.25
2018-03-19T08:03:49.206Z,44.60
2018-03-19T08:06:16.750Z,36.42
2018-03-19T08:08:44.226Z,45.55
2018-03-19T08:11:12.512Z,38.30
2018-03-19T08:13:40.030Z,34.55
2018-03-19T08:16:09.043Z,43.17
2018-03-19T08:18:37.324Z,33.45
2018-03-19T08:21:04.858Z,46.63
2018-03-19T08:23:32.347Z,39.65
2018-03-19T08:26:00.662Z,41.30
2018-03-19T08:28:28.168Z,37.88
2018-03-19T08:30:55.683Z,40.63
2018-03-19T08:33:23.182Z,47.85
2018-03-19T08:35:50.705Z,45.47
2018-03-19T08:38:18.182Z,36.15
2018-03-19T08:40:45.675Z,47.40
2018-03-19T08:43:13.919Z,39.05
2018-03-19T08:45:41.441Z,40.65
2018-03-19T08:48:08.919Z,41.25
2018-03-19T08:50:36.413Z,37.05
2018-03-19T08:53:03.933Z,42.78
2018-03-19T08:55:31.431Z,42.10
2018-03-19T08:57:58.929Z,42.85
2018-03-19T09:00:26.484Z,44.50
2018-03-19T09:02:54.030Z,44.42
2018-03-19T09:05:22.283Z,39.35
2018-03-19T09:07:49.771Z,44.55
2018-03-19T09:10:18.034Z,34.88
2018-03-19T09:12:45.546Z,38.10
2018-03-19T09:15:13.018Z,43.42
2018-03-19T09:17:40.583Z,42.72
2018-03-19T09:20:08.066Z,40.97
2018-03-19T09:22:35.563Z,42.95
2018-03-19T09:25:03.077Z,38.67
2018-03-19T09:27:30.582Z,38.10
2018-03-19T09:35:19.939Z,57.50
2018-03-19T09:37:47.481Z,41.95
2018-03-19T09:40:15.009Z,50.25
2018-03-19T09:42:42.488Z,41.67
2018-03-19T09:45:09.993Z,48.40
2018-03-19T09:47:38.249Z,44.13
2018-03-19T09:50:05.776Z,39.05
2018-03-19T09:52:33.864Z,36.00
2018-03-19T09:55:01.377Z,44.75
2018-03-19T09:57:29.640Z,45.65
2018-03-19T09:59:57.170Z,42.47
2018-03-19T10:02:24.656Z,36.00
2018-03-19T10:04:52.926Z,43.25
2018-03-19T10:07:20.426Z,39.17
2018-03-19T10:09:47.913Z,39.45
2018-03-19T10:12:15.428Z,34.60
2018-03-19T10:14:42.913Z,33.65
2018-03-19T10:17:10.431Z,40.20
2018-03-19T10:19:38.664Z,41.30
2018-03-19T10:22:06.191Z,40.00
2018-03-19T10:24:33.712Z,34.95
2018-03-19T10:27:01.195Z,40.83
2018-03-19T10:29:28.729Z,41.53
2018-03-19T10:31:56.231Z,40.50
2018-03-19T10:34:23.725Z,32.83
2018-03-19T10:36:51.219Z,37.08
2018-03-19T10:39:19.497Z,37.67
2018-03-19T10:41:47.763Z,42.15
2018-03-19T10:44:15.290Z,31.87
2018-03-19T10:46:42.800Z,42.35
2018-03-19T10:49:11.055Z,39.67
2018-03-19T10:51:38.529Z,47.85
2018-03-19T10:54:06.772Z,39.10
2018-03-19T10:56:34.317Z,39.17
2018-03-19T10:59:01.799Z,33.58
2018-03-19T11:01:35.119Z,39.05
2018-03-19T11:04:09.119Z,44.38
2018-03-19T11:09:45.140Z,32.10
2018-03-19T11:12:12.748Z,44.10
2018-03-19T11:14:40.920Z,34.45
2018-03-19T11:17:08.414Z,36.78
2018-03-19T11:19:35.916Z,46.83
2018-03-19T11:22:03.421Z,51.67
2018-03-19T11:24:31.656Z,38.50
2018-03-19T11:26:59.170Z,32.20
2018-03-19T11:29:26.646Z,40.63
2018-03-19T11:31:54.147Z,32.65
2018-03-19T11:34:21.654Z,34.28
2018-03-19T11:36:49.142Z,32.00
2018-03-19T11:39:16.667Z,45.67
2018-03-19T11:41:45.490Z,36.00
2018-03-19T11:44:13.793Z,30.92
2018-03-19T11:46:41.285Z,34.38
2018-03-19T11:49:09.574Z,27.55
2018-03-19T11:51:37.086Z,32.03
2018-03-19T11:54:04.588Z,34.05
2018-03-19T11:56:32.090Z,32.70
2018-03-19T11:58:59.628Z,32.22
2018-03-19T12:01:27.173Z,31.83
2018-03-19T12:03:54.642Z,30.92
2018-03-19T12:06:22.140Z,35.47
2018-03-19T12:08:49.634Z,31.77
2018-03-19T12:11:17.175Z,31.45
2018-03-19T12:13:44.728Z,47.00
2018-03-19T12:16:12.984Z,45.92
2018-03-19T12:18:40.493Z,35.30
2018-03-19T12:21:08.021Z,35.40
2018-03-19T12:23:35.510Z,33.60
2018-03-19T12:26:03.012Z,37.95
2018-03-19T12:28:30.507Z,30.95
2018-03-19T12:30:58.810Z,34.03
2018-03-19T12:33:26.302Z,35.75
2018-03-19T12:35:53.767Z,35.40
2018-03-19T12:38:21.277Z,39.88
2018-03-19T12:40:48.790Z,35.05
2018-03-19T12:43:16.291Z,37.28
2018-03-19T12:45:44.562Z,28.42
2018-03-19T12:48:12.851Z,36.42
2018-03-19T12:50:41.103Z,41.17
2018-03-19T12:53:08.615Z,30.33
2018-03-19T12:55:36.122Z,34.90
2018-03-19T12:58:04.380Z,36.47
2018-03-19T13:00:33.414Z,37.35
2018-03-19T13:03:01.656Z,33.17
2018-03-19T13:05:29.150Z,32.58
2018-03-19T13:07:56.665Z,36.08
2018-03-19T13:10:24.155Z,36.25
2018-03-19T13:12:52.476Z,36.20
2018-03-19T13:15:19.935Z,34.72
2018-03-19T13:17:47.472Z,38.70
2018-03-19T13:20:15.710Z,36.50
2018-03-19T13:22:43.254Z,41.10
2018-03-19T13:25:10.743Z,38.88
2018-03-19T13:27:39.036Z,36.38
2018-03-19T13:30:06.519Z,33.30
2018-03-19T13:32:34.012Z,35.08
2018-03-19T13:35:01.515Z,40.15
2018-03-19T13:37:28.997Z,38.67
2018-03-19T13:39:56.538Z,36.15
2018-03-19T13:42:24.760Z,40.40
2018-03-19T13:44:52.286Z,41.37
2018-03-19T13:47:19.759Z,43.22
2018-03-19T13:49:47.333Z,47.45
2018-03-19T13:52:14.814Z,36.95
2018-03-19T13:54:42.311Z,39.20
2018-03-19T13:57:09.828Z,38.28
2018-03-19T13:59:37.311Z,41.05
2018-03-19T14:02:05.604Z,55.90
2018-03-19T14:04:33.178Z,40.75
2018-03-19T14:07:00.639Z,38.20
2018-03-19T14:09:28.135Z,42.57
2018-03-19T14:11:55.646Z,42.55
2018-03-19T14:14:23.152Z,42.60
2018-03-19T14:16:50.705Z,51.75
2018-03-19T14:19:18.211Z,54.97
2018-03-19T14:21:45.715Z,43.33
2018-03-19T14:24:14.021Z,42.70
2018-03-19T14:26:41.496Z,46.13
2018-03-19T14:29:09.739Z,45.67
2018-03-19T14:31:37.259Z,47.85
2018-03-19T14:34:04.757Z,46.80
2018-03-19T14:36:32.251Z,46.60
2018-03-19T14:39:00.502Z,40.95
2018-03-19T14:41:28.034Z,45.05
2018-03-19T14:43:55.509Z,44.13
2018-03-19T14:46:23.157Z,43.40
2018-03-19T14:48:50.515Z,36.97
2018-03-19T14:51:17.987Z,42.83
2018-03-19T14:53:45.497Z,37.03
2018-03-19T14:56:12.967Z,40.58
2018-03-19T14:58:40.471Z,44.13
2018-03-19T15:01:08.751Z,50.22
2018-03-19T15:03:36.239Z,35.77
2018-03-19T15:06:03.748Z,45.75
2018-03-19T15:08:31.224Z,40.88
2018-03-19T15:10:58.733Z,43.45
2018-03-19T15:13:26.238Z,39.25
2018-03-19T15:15:53.765Z,40.55
2018-03-19T15:18:21.296Z,48.05
2018-03-19T15:20:49.564Z,49.63
2018-03-19T15:23:17.843Z,40.65
2018-03-19T15:25:45.351Z,48.65
2018-03-19T15:28:12.843Z,42.60
2018-03-19T15:30:40.340Z,48.25
2018-03-19T15:33:07.863Z,45.65
2018-03-19T15:35:35.370Z,40.63
2018-03-19T15:38:02.872Z,41.42
2018-03-19T15:40:30.397Z,35.58
2018-03-19T15:42:57.911Z,42.42
2018-03-19T15:45:26.192Z,44.75
2018-03-19T15:47:54.469Z,39.80
2018-03-19T15:50:22.766Z,38.78
2018-03-19T15:52:50.270Z,40.88
2018-03-19T15:55:17.809Z,52.10
2018-03-19T15:57:45.284Z,41.50
2018-03-19T16:00:12.808Z,42.03
2018-03-19T16:02:40.303Z,43.65
2018-03-19T16:05:07.829Z,38.10
2018-03-19T16:07:35.936Z,39.95
2018-03-19T16:10:03.458Z,47.92
2018-03-19T16:12:30.926Z,34.58
2018-03-19T16:14:58.450Z,37.03
2018-03-19T16:17:26.757Z,34.35
2018-03-19T16:19:54.240Z,34.33
2018-03-19T16:22:21.743Z,27.30
2018-03-19T16:24:49.996Z,28.23
2018-03-19T16:27:17.545Z,28.55
2018-03-19T16:29:45.011Z,29.80
2018-03-19T16:32:12.522Z,27.60
2018-03-19T16:34:40.014Z,26.60
2018-03-19T16:37:07.535Z,20.83
2018-03-19T16:39:35.034Z,25.50
2018-03-19T16:42:02.531Z,29.48
2018-03-19T16:44:30.810Z,25.98
2018-03-19T16:47:17.560Z,28.35
2018-03-19T16:52:37.445Z,26.33
2018-03-19T16:55:04.919Z,30.12
2018-03-19T16:57:32.442Z,24.95
2018-03-19T17:00:00.697Z,28.50
2018-03-19T17:02:28.214Z,23.35
2018-03-19T17:04:55.691Z,24.90
2018-03-19T17:07:23.202Z,22.17
2018-03-19T17:09:51.474Z,21.77
2018-03-19T17:12:19.732Z,23.17
2018-03-19T17:14:47.274Z,23.05
2018-03-19T17:17:19.767Z,21.52
2018-03-19T17:19:47.246Z,33.65
2018-03-19T17:22:15.517Z,27.42
2018-03-19T17:24:43.772Z,26.00
2018-03-19T17:27:13.167Z,24.90
2018-03-19T17:29:43.662Z,32.22
2018-03-19T17:32:11.180Z,26.83
2018-03-19T17:34:51.399Z,35.40
2018-03-19T17:37:25.787Z,24.12
2018-03-19T17:39:53.294Z,27.65
2018-03-19T17:42:21.595Z,24.92
2018-03-19T17:44:49.863Z,29.42
2018-03-19T17:47:17.373Z,29.75
2018-03-19T17:49:45.627Z,31.58
2018-03-19T17:52:13.134Z,25.73
2018-03-19T17:54:40.664Z,22.05
2018-03-19T17:57:08.172Z,28.58
2018-03-19T17:59:35.714Z,52.92
2018-03-19T18:02:03.218Z,25.77
2018-03-19T18:04:31.469Z,23.92
2018-03-19T18:06:58.997Z,21.00
2018-03-19T18:09:26.521Z,23.20
2018-03-19T18:11:54.029Z,21.95
2018-03-19T18:14:21.562Z,26.17
2018-03-19T18:16:49.056Z,26.73
2018-03-19T18:19:16.580Z,30.92
2018-03-19T18:21:44.110Z,26.25
2018-03-19T18:24:12.402Z,29.30
2018-03-19T18:26:39.912Z,23.98
2018-03-19T18:29:07.411Z,26.37
2018-03-19T18:31:34.900Z,23.20
2018-03-19T18:34:02.472Z,23.15
2018-03-19T18:36:29.940Z,29.92
2018-03-19T18:38:57.466Z,29.58
2018-03-19T18:41:24.989Z,36.75
2018-03-19T18:43:53.273Z,30.85
2018-03-19T18:46:21.575Z,23.20
2018-03-19T18:48:49.079Z,65.65
2018-03-19T18:51:16.599Z,37.28
2018-03-19T18:53:44.120Z,30.10
2018-03-19T18:56:12.398Z,31.80
2018-03-19T18:58:40.680Z,29.85
2018-03-19T19:01:08.199Z,25.37
2018-03-19T19:03:35.691Z,25.52
2018-03-19T19:06:03.994Z,23.83
2018-03-19T19:08:31.518Z,23.17
2018-03-19T19:10:59.805Z,24.05
2018-03-19T19:13:28.042Z,23.65
2018-03-19T19:15:55.590Z,28.55
2018-03-19T19:18:23.095Z,24.90
2018-03-19T19:20:51.377Z,23.73
2018-03-19T19:23:19.691Z,25.70
2018-03-19T19:25:47.206Z,24.52
2018-03-19T19:28:14.740Z,24.98
2018-03-19T19:30:42.231Z,27.27
2018-03-19T19:33:10.512Z,22.75
2018-03-19T19:35:38.779Z,28.70
2018-03-19T19:38:06.281Z,29.35
2018-03-19T19:40:33.853Z,22.48
2018-03-19T19:43:01.380Z,28.87
2018-03-19T19:45:29.662Z,29.27
2018-03-19T19:47:57.196Z,32.95
2018-03-19T19:50:24.695Z,28.83
2018-03-19T19:52:52.199Z,25.62
2018-03-19T19:55:19.676Z,26.02
2018-03-19T19:57:47.210Z,32.83
2018-03-19T20:00:14.721Z,29.50
2018-03-19T20:02:42.250Z,29.70
2018-03-19T20:05:09.732Z,24.15
2018-03-19T20:07:37.270Z,28.77
2018-03-19T20:10:04.761Z,28.23
2018-03-19T20:12:32.281Z,28.48
2018-03-19T20:14:59.813Z,33.08
2018-03-19T20:17:27.314Z,34.65
2018-03-19T20:19:55.583Z,37.20
2018-03-19T20:22:23.895Z,39.20
2018-03-19T20:24:51.399Z,34.13
2018-03-19T20:27:18.916Z,31.92
2018-03-19T20:29:46.390Z,30.83
2018-03-19T20:32:13.928Z,30.50
2018-03-19T20:34:41.439Z,37.45
2018-03-19T20:37:08.956Z,36.28
2018-03-19T20:39:36.480Z,28.73
2018-03-19T20:42:04.729Z,33.20
2018-03-19T20:44:32.266Z,30.25
2018-03-19T20:46:59.774Z,29.10
2018-03-19T20:49:28.058Z,35.25
2018-03-19T20:51:56.318Z,34.72
2018-03-19T20:54:23.886Z,26.77
2018-03-19T20:56:51.358Z,27.80
2018-03-19T20:59:19.612Z,30.75
2018-03-19T21:01:47.150Z,30.15
2018-03-19T21:04:14.617Z,30.95
2018-03-19T21:06:42.187Z,32.92
2018-03-19T21:09:09.918Z,37.80
2018-03-19T21:11:37.445Z,30.85
2018-03-19T21:14:05.695Z,29.85
2018-03-19T21:16:33.189Z,27.73
2018-03-19T21:19:00.725Z,35.17
2018-03-19T21:21:28.967Z,34.55
2018-03-19T21:23:56.732Z,34.35
2018-03-19T21:26:24.213Z,23.87
2018-03-19T21:28:51.745Z,25.98
2018-03-19T21:31:19.218Z,29.45
2018-03-19T21:33:46.736Z,29.25
2018-03-19T21:36:14.239Z,31.95
2018-03-19T21:38:41.749Z,31.60
2018-03-19T21:41:09.241Z,26.70
2018-03-19T21:43:36.718Z,30.37
2018-03-19T21:46:04.206Z,26.85
2018-03-19T21:48:31.715Z,29.27
2018-03-19T21:50:59.228Z,30.45
2018-03-19T21:53:26.712Z,34.00
2018-03-19T21:55:54.227Z,35.83
2018-03-19T21:58:22.471Z,30.98
2018-03-19T22:00:49.981Z,31.52
2018-03-19T22:03:18.227Z,24.35
2018-03-19T22:05:45.726Z,32.25
2018-03-19T22:08:14.260Z,26.42
2018-03-19T22:10:41.772Z,34.75
2018-03-19T22:13:09.272Z,31.45
2018-03-19T22:15:36.775Z,33.33
2018-03-19T22:18:05.018Z,24.83
2018-03-19T22:20:32.506Z,38.22
2018-03-19T22:22:59.983Z,28.48
2018-03-19T22:25:27.478Z,27.60
2018-03-19T22:27:54.972Z,32.67
2018-03-19T22:30:23.244Z,29.95
2018-03-19T22:32:51.499Z,25.37
2018-03-19T22:35:19.014Z,29.50
2018-03-19T22:37:46.507Z,30.33
2018-03-19T22:40:14.029Z,31.92
2018-03-19T22:42:41.503Z,32.75
2018-03-19T22:45:08.984Z,31.95
2018-03-19T22:47:36.495Z,27.05
2018-03-19T22:50:03.981Z,31.15
2018-03-19T22:52:31.502Z,30.02
2018-03-19T22:54:59.770Z,28.77
2018-03-19T22:57:28.076Z,29.67
2018-03-19T22:59:55.568Z,30.35
2018-03-19T23:02:23.051Z,25.23
2018-03-19T23:08:05.291Z,29.40
2018-03-19T23:10:33.553Z,33.20
2018-03-19T23:13:01.090Z,32.05
2018-03-19T23:15:28.562Z,31.48
2018-03-19T23:17:56.056Z,34.28
2018-03-19T23:20:24.341Z,35.83
2018-03-19T23:22:51.862Z,37.33
2018-03-19T23:25:19.359Z,39.00
2018-03-19T23:27:47.591Z,31.55
2018-03-19T23:30:15.123Z,29.95
2018-03-19T23:32:42.591Z,31.60
2018-03-19T23:35:10.120Z,27.70
2018-03-19T23:37:37.586Z,30.08
2018-03-19T23:40:05.077Z,30.20
2018-03-19T23:42:32.567Z,31.15
2018-03-19T23:45:00.801Z,35.00
2018-03-19T23:47:28.328Z,31.83
2018-03-19T23:49:55.829Z,30.83
2018-03-19T23:52:23.337Z,29.50
2018-03-19T23:54:50.820Z,31.33
2018-03-19T23:57:18.317Z,29.80
2018-03-19T23:59:45.790Z,31.70
